sensor_id;sensor_type;location;lat;lon;timestamp;temperature;humidity
11055;DHT22;5580;50.106;8.702;2023-07-29T00:00:48;20.70;99.90
11055;DHT22;5580;50.106;8.702;2023-07-29T00:03:14;20.60;99.90
11055;DHT22;5580;50.106;8.702;2023-07-29T00:05:40;20.60;99.90
11055;DHT22;5580;50.106;8.702;2023-07-29T00:08:06;20.70;99.90
11055;DHT22;5580;50.106;8.702;2023-07-29T00:10:34;20.60;99.90
11055;DHT22;5580;50.106;8.702;2023-07-29T00:13:00;20.60;99.90
11055;DHT22;5580;50.106;8.702;2023-07-29T00:15:26;20.70;99.90
11055;DHT22;5580;50.106;8.702;2023-07-29T00:17:51;20.60;99.90
11055;DHT22;5580;50.106;8.702;2023-07-29T00:20:17;20.60;99.90
11055;DHT22;5580;50.106;8.702;2023-07-29T00:22:43;20.60;99.90
11055;DHT22;5580;50.106;8.702;2023-07-29T00:25:08;20.60;99.90
11055;DHT22;5580;50.106;8.702;2023-07-29T00:27:34;20.60;99.90
11055;DHT22;5580;50.106;8.702;2023-07-29T00:30:00;20.60;99.90
11055;DHT22;5580;50.106;8.702;2023-07-29T00:32:29;20.70;99.90
11055;DHT22;5580;50.106;8.702;2023-07-29T00:34:54;20.70;99.90
11055;DHT22;5580;50.106;8.702;2023-07-29T00:37:20;20.60;99.90
11055;DHT22;5580;50.106;8.702;2023-07-29T00:39:46;20.70;99.90
11055;DHT22;5580;50.106;8.702;2023-07-29T00:42:11;20.70;99.90
11055;DHT22;5580;50.106;8.702;2023-07-29T00:44:37;20.70;99.90
11055;DHT22;5580;50.106;8.702;2023-07-29T00:47:05;20.70;99.90
11055;DHT22;5580;50.106;8.702;2023-07-29T00:49:31;20.70;99.90
11055;DHT22;5580;50.106;8.702;2023-07-29T00:51:57;20.70;99.90
11055;DHT22;5580;50.106;8.702;2023-07-29T00:54:23;20.70;99.90
11055;DHT22;5580;50.106;8.702;2023-07-29T00:56:49;20.70;99.90
11055;DHT22;5580;50.106;8.702;2023-07-29T00:59:15;20.70;99.90
11055;DHT22;5580;50.106;8.702;2023-07-29T01:01:41;20.70;99.90
11055;DHT22;5580;50.106;8.702;2023-07-29T01:04:06;20.60;99.90
11055;DHT22;5580;50.106;8.702;2023-07-29T01:15:01;20.60;99.90
11055;DHT22;5580;50.106;8.702;2023-07-29T01:17:43;20.70;99.90
11055;DHT22;5580;50.106;8.702;2023-07-29T01:20:14;20.60;99.90
11055;DHT22;5580;50.106;8.702;2023-07-29T01:22:41;20.60;99.90
11055;DHT22;5580;50.106;8.702;2023-07-29T01:25:07;20.60;99.90
11055;DHT22;5580;50.106;8.702;2023-07-29T01:27:33;20.60;99.90
11055;DHT22;5580;50.106;8.702;2023-07-29T01:29:58;20.70;99.90
11055;DHT22;5580;50.106;8.702;2023-07-29T01:32:53;20.70;99.90
11055;DHT22;5580;50.106;8.702;2023-07-29T01:37:57;20.60;99.90
11055;DHT22;5580;50.106;8.702;2023-07-29T01:40:26;20.50;99.90
11055;DHT22;5580;50.106;8.702;2023-07-29T01:42:53;20.50;99.90
11055;DHT22;5580;50.106;8.702;2023-07-29T01:45:18;20.60;99.90
11055;DHT22;5580;50.106;8.702;2023-07-29T01:47:44;20.60;99.90
11055;DHT22;5580;50.106;8.702;2023-07-29T01:50:10;20.50;99.90
11055;DHT22;5580;50.106;8.702;2023-07-29T01:52:35;20.50;99.90
11055;DHT22;5580;50.106;8.702;2023-07-29T01:55:02;20.50;99.90
11055;DHT22;5580;50.106;8.702;2023-07-29T01:57:27;20.50;99.90
11055;DHT22;5580;50.106;8.702;2023-07-29T01:59:53;20.50;99.90
11055;DHT22;5580;50.106;8.702;2023-07-29T02:02:18;20.30;99.90
11055;DHT22;5580;50.106;8.702;2023-07-29T02:04:44;20.20;99.90
11055;DHT22;5580;50.106;8.702;2023-07-29T02:07:10;20.20;99.90
11055;DHT22;5580;50.106;8.702;2023-07-29T02:09:36;20.20;99.90
11055;DHT22;5580;50.106;8.702;2023-07-29T02:12:01;20.30;99.90
11055;DHT22;5580;50.106;8.702;2023-07-29T02:14:28;20.30;99.90
11055;DHT22;5580;50.106;8.702;2023-07-29T02:16:53;20.30;99.90
11055;DHT22;5580;50.106;8.702;2023-07-29T02:19:19;20.30;99.90
11055;DHT22;5580;50.106;8.702;2023-07-29T02:21:44;20.30;99.90
11055;DHT22;5580;50.106;8.702;2023-07-29T02:24:10;20.30;99.90
11055;DHT22;5580;50.106;8.702;2023-07-29T02:26:35;20.40;99.90
11055;DHT22;5580;50.106;8.702;2023-07-29T02:29:01;20.40;99.90
11055;DHT22;5580;50.106;8.702;2023-07-29T02:31:27;20.40;99.90
11055;DHT22;5580;50.106;8.702;2023-07-29T02:33:52;20.40;99.90
11055;DHT22;5580;50.106;8.702;2023-07-29T02:36:18;20.50;99.90
11055;DHT22;5580;50.106;8.702;2023-07-29T02:38:44;20.50;99.90
11055;DHT22;5580;50.106;8.702;2023-07-29T02:41:10;20.40;99.90
11055;DHT22;5580;50.106;8.702;2023-07-29T02:43:37;20.40;99.90
11055;DHT22;5580;50.106;8.702;2023-07-29T02:46:03;20.40;99.90
11055;DHT22;5580;50.106;8.702;2023-07-29T02:48:29;20.40;99.90
11055;DHT22;5580;50.106;8.702;2023-07-29T02:50:55;20.50;99.90
11055;DHT22;5580;50.106;8.702;2023-07-29T02:53:22;20.40;99.90
11055;DHT22;5580;50.106;8.702;2023-07-29T02:55:47;20.40;99.90
11055;DHT22;5580;50.106;8.702;2023-07-29T02:58:13;20.40;99.90
11055;DHT22;5580;50.106;8.702;2023-07-29T03:00:38;20.40;99.90
11055;DHT22;5580;50.106;8.702;2023-07-29T03:03:07;20.40;99.90
11055;DHT22;5580;50.106;8.702;2023-07-29T03:05:33;20.40;99.90
11055;DHT22;5580;50.106;8.702;2023-07-29T03:07:59;20.40;99.90
11055;DHT22;5580;50.106;8.702;2023-07-29T03:10:24;20.40;99.90
11055;DHT22;5580;50.106;8.702;2023-07-29T03:12:50;20.40;99.90
11055;DHT22;5580;50.106;8.702;2023-07-29T03:15:16;20.40;99.90
11055;DHT22;5580;50.106;8.702;2023-07-29T03:17:42;20.30;99.90
11055;DHT22;5580;50.106;8.702;2023-07-29T03:20:08;20.30;99.90
11055;DHT22;5580;50.106;8.702;2023-07-29T03:22:33;20.30;99.90
11055;DHT22;5580;50.106;8.702;2023-07-29T03:24:59;20.30;99.90
11055;DHT22;5580;50.106;8.702;2023-07-29T03:27:24;20.30;99.90
11055;DHT22;5580;50.106;8.702;2023-07-29T03:29:50;20.30;99.90
11055;DHT22;5580;50.106;8.702;2023-07-29T03:32:15;20.30;99.90
11055;DHT22;5580;50.106;8.702;2023-07-29T03:34:41;20.30;99.90
11055;DHT22;5580;50.106;8.702;2023-07-29T03:37:06;20.30;99.90
11055;DHT22;5580;50.106;8.702;2023-07-29T03:39:32;20.30;99.90
11055;DHT22;5580;50.106;8.702;2023-07-29T03:41:58;20.20;99.90
11055;DHT22;5580;50.106;8.702;2023-07-29T03:44:23;20.20;99.90
11055;DHT22;5580;50.106;8.702;2023-07-29T03:46:49;20.20;99.90
11055;DHT22;5580;50.106;8.702;2023-07-29T03:49:15;20.20;99.90
11055;DHT22;5580;50.106;8.702;2023-07-29T03:51:40;20.20;99.90
11055;DHT22;5580;50.106;8.702;2023-07-29T03:54:06;20.30;99.90
11055;DHT22;5580;50.106;8.702;2023-07-29T03:56:32;20.30;99.90
11055;DHT22;5580;50.106;8.702;2023-07-29T03:59:07;20.30;99.90
11055;DHT22;5580;50.106;8.702;2023-07-29T04:01:32;20.30;99.90
11055;DHT22;5580;50.106;8.702;2023-07-29T04:03:58;20.30;99.90
11055;DHT22;5580;50.106;8.702;2023-07-29T04:06:24;20.40;99.90
11055;DHT22;5580;50.106;8.702;2023-07-29T04:08:50;20.30;99.90
11055;DHT22;5580;50.106;8.702;2023-07-29T04:11:16;20.30;99.90
11055;DHT22;5580;50.106;8.702;2023-07-29T04:13:41;20.30;99.90
11055;DHT22;5580;50.106;8.702;2023-07-29T04:16:07;20.30;99.90
11055;DHT22;5580;50.106;8.702;2023-07-29T04:18:33;20.30;99.90
11055;DHT22;5580;50.106;8.702;2023-07-29T04:20:58;20.30;99.90
11055;DHT22;5580;50.106;8.702;2023-07-29T04:23:24;20.30;99.90
11055;DHT22;5580;50.106;8.702;2023-07-29T04:25:49;20.30;99.90
11055;DHT22;5580;50.106;8.702;2023-07-29T04:28:15;20.30;99.90
11055;DHT22;5580;50.106;8.702;2023-07-29T04:30:41;20.30;99.90
11055;DHT22;5580;50.106;8.702;2023-07-29T04:33:07;20.30;99.90
11055;DHT22;5580;50.106;8.702;2023-07-29T04:35:32;20.30;99.90
11055;DHT22;5580;50.106;8.702;2023-07-29T04:37:58;20.30;99.90
11055;DHT22;5580;50.106;8.702;2023-07-29T04:40:23;20.40;99.90
11055;DHT22;5580;50.106;8.702;2023-07-29T04:42:49;20.30;99.90
11055;DHT22;5580;50.106;8.702;2023-07-29T04:45:15;20.30;99.90
11055;DHT22;5580;50.106;8.702;2023-07-29T04:47:41;20.30;99.90
11055;DHT22;5580;50.106;8.702;2023-07-29T04:50:07;20.30;99.90
11055;DHT22;5580;50.106;8.702;2023-07-29T04:52:33;20.30;99.90
11055;DHT22;5580;50.106;8.702;2023-07-29T04:54:59;20.30;99.90
11055;DHT22;5580;50.106;8.702;2023-07-29T04:57:24;20.30;99.90
11055;DHT22;5580;50.106;8.702;2023-07-29T04:59:50;20.30;99.90
11055;DHT22;5580;50.106;8.702;2023-07-29T05:02:15;20.30;99.90
11055;DHT22;5580;50.106;8.702;2023-07-29T05:04:41;20.30;99.90
11055;DHT22;5580;50.106;8.702;2023-07-29T05:07:06;20.40;99.90
11055;DHT22;5580;50.106;8.702;2023-07-29T05:09:32;20.30;99.90
11055;DHT22;5580;50.106;8.702;2023-07-29T05:11:57;20.30;99.90
11055;DHT22;5580;50.106;8.702;2023-07-29T05:14:23;20.30;99.90
11055;DHT22;5580;50.106;8.702;2023-07-29T05:16:49;20.30;99.90
11055;DHT22;5580;50.106;8.702;2023-07-29T05:19:14;20.30;99.90
11055;DHT22;5580;50.106;8.702;2023-07-29T05:21:40;20.40;99.90
11055;DHT22;5580;50.106;8.702;2023-07-29T05:24:06;20.40;99.90
11055;DHT22;5580;50.106;8.702;2023-07-29T05:26:31;20.40;99.90
11055;DHT22;5580;50.106;8.702;2023-07-29T05:28:57;20.40;99.90
11055;DHT22;5580;50.106;8.702;2023-07-29T05:31:22;20.40;99.90
11055;DHT22;5580;50.106;8.702;2023-07-29T05:33:48;20.40;99.90
11055;DHT22;5580;50.106;8.702;2023-07-29T05:36:14;20.40;99.90
11055;DHT22;5580;50.106;8.702;2023-07-29T05:38:40;20.40;99.90
11055;DHT22;5580;50.106;8.702;2023-07-29T05:41:06;20.40;99.90
11055;DHT22;5580;50.106;8.702;2023-07-29T05:43:32;20.40;99.90
11055;DHT22;5580;50.106;8.702;2023-07-29T05:45:57;20.40;99.90
11055;DHT22;5580;50.106;8.702;2023-07-29T05:48:23;20.40;99.90
11055;DHT22;5580;50.106;8.702;2023-07-29T05:50:48;20.40;99.90
11055;DHT22;5580;50.106;8.702;2023-07-29T05:53:14;20.40;99.90
11055;DHT22;5580;50.106;8.702;2023-07-29T05:55:40;20.40;99.90
11055;DHT22;5580;50.106;8.702;2023-07-29T05:58:05;20.40;99.90
11055;DHT22;5580;50.106;8.702;2023-07-29T06:00:31;20.40;99.90
11055;DHT22;5580;50.106;8.702;2023-07-29T06:02:57;20.40;99.90
11055;DHT22;5580;50.106;8.702;2023-07-29T06:05:22;20.40;99.90
11055;DHT22;5580;50.106;8.702;2023-07-29T06:07:48;20.40;99.90
11055;DHT22;5580;50.106;8.702;2023-07-29T06:10:15;20.50;99.90
11055;DHT22;5580;50.106;8.702;2023-07-29T06:12:44;20.50;99.90
11055;DHT22;5580;50.106;8.702;2023-07-29T06:15:10;20.50;99.90
11055;DHT22;5580;50.106;8.702;2023-07-29T06:17:36;20.50;99.90
11055;DHT22;5580;50.106;8.702;2023-07-29T06:20:01;20.50;99.90
11055;DHT22;5580;50.106;8.702;2023-07-29T06:22:28;20.50;99.90
11055;DHT22;5580;50.106;8.702;2023-07-29T06:24:53;20.50;99.90
11055;DHT22;5580;50.106;8.702;2023-07-29T06:27:19;20.50;99.90
11055;DHT22;5580;50.106;8.702;2023-07-29T06:29:44;20.50;99.90
11055;DHT22;5580;50.106;8.702;2023-07-29T06:32:10;20.60;99.90
11055;DHT22;5580;50.106;8.702;2023-07-29T06:34:35;20.60;99.90
11055;DHT22;5580;50.106;8.702;2023-07-29T06:37:01;20.60;99.90
11055;DHT22;5580;50.106;8.702;2023-07-29T06:39:26;20.50;99.90
11055;DHT22;5580;50.106;8.702;2023-07-29T06:41:52;20.50;99.90
11055;DHT22;5580;50.106;8.702;2023-07-29T06:44:17;20.50;99.90
11055;DHT22;5580;50.106;8.702;2023-07-29T06:46:43;20.50;99.90
11055;DHT22;5580;50.106;8.702;2023-07-29T06:49:09;20.50;99.90
11055;DHT22;5580;50.106;8.702;2023-07-29T06:51:34;20.50;99.90
11055;DHT22;5580;50.106;8.702;2023-07-29T06:54:01;20.50;99.90
11055;DHT22;5580;50.106;8.702;2023-07-29T06:56:27;20.60;99.90
11055;DHT22;5580;50.106;8.702;2023-07-29T06:58:53;20.60;99.90
11055;DHT22;5580;50.106;8.702;2023-07-29T07:01:18;20.70;99.90
11055;DHT22;5580;50.106;8.702;2023-07-29T07:03:44;20.60;99.90
11055;DHT22;5580;50.106;8.702;2023-07-29T07:06:09;20.70;99.90
11055;DHT22;5580;50.106;8.702;2023-07-29T07:08:35;20.70;99.90
11055;DHT22;5580;50.106;8.702;2023-07-29T07:11:01;20.70;99.90
11055;DHT22;5580;50.106;8.702;2023-07-29T07:13:26;20.70;99.90
11055;DHT22;5580;50.106;8.702;2023-07-29T07:15:54;20.70;99.90
11055;DHT22;5580;50.106;8.702;2023-07-29T07:18:20;20.80;99.90
11055;DHT22;5580;50.106;8.702;2023-07-29T07:20:51;20.80;99.90
11055;DHT22;5580;50.106;8.702;2023-07-29T07:23:17;20.80;99.90
11055;DHT22;5580;50.106;8.702;2023-07-29T07:25:43;20.70;99.90
11055;DHT22;5580;50.106;8.702;2023-07-29T07:28:10;20.70;99.90
11055;DHT22;5580;50.106;8.702;2023-07-29T07:30:39;20.70;99.90
11055;DHT22;5580;50.106;8.702;2023-07-29T07:33:06;20.70;99.90
11055;DHT22;5580;50.106;8.702;2023-07-29T07:35:32;20.70;99.90
11055;DHT22;5580;50.106;8.702;2023-07-29T07:37:57;20.70;99.90
11055;DHT22;5580;50.106;8.702;2023-07-29T07:40:24;20.70;99.90
11055;DHT22;5580;50.106;8.702;2023-07-29T07:42:50;20.70;99.90
11055;DHT22;5580;50.106;8.702;2023-07-29T07:45:15;20.70;99.90
11055;DHT22;5580;50.106;8.702;2023-07-29T07:47:43;20.80;99.90
11055;DHT22;5580;50.106;8.702;2023-07-29T07:50:09;20.80;99.90
11055;DHT22;5580;50.106;8.702;2023-07-29T07:52:34;20.80;99.90
11055;DHT22;5580;50.106;8.702;2023-07-29T07:55:00;20.80;99.90
11055;DHT22;5580;50.106;8.702;2023-07-29T07:57:25;20.80;99.90
11055;DHT22;5580;50.106;8.702;2023-07-29T07:59:51;20.90;99.90
11055;DHT22;5580;50.106;8.702;2023-07-29T08:02:18;20.80;99.90
11055;DHT22;5580;50.106;8.702;2023-07-29T08:04:43;20.90;99.90
11055;DHT22;5580;50.106;8.702;2023-07-29T08:07:09;20.80;99.90
11055;DHT22;5580;50.106;8.702;2023-07-29T08:09:34;20.80;99.90
11055;DHT22;5580;50.106;8.702;2023-07-29T08:12:00;20.80;99.90
11055;DHT22;5580;50.106;8.702;2023-07-29T08:14:26;20.80;99.90
11055;DHT22;5580;50.106;8.702;2023-07-29T08:16:52;20.80;99.90
11055;DHT22;5580;50.106;8.702;2023-07-29T08:19:17;20.80;99.90
11055;DHT22;5580;50.106;8.702;2023-07-29T08:21:43;20.80;99.90
11055;DHT22;5580;50.106;8.702;2023-07-29T08:24:08;20.90;99.90
11055;DHT22;5580;50.106;8.702;2023-07-29T08:26:34;20.90;99.90
11055;DHT22;5580;50.106;8.702;2023-07-29T08:29:00;20.90;99.90
11055;DHT22;5580;50.106;8.702;2023-07-29T08:31:25;20.90;99.90
11055;DHT22;5580;50.106;8.702;2023-07-29T08:33:51;20.90;99.90
11055;DHT22;5580;50.106;8.702;2023-07-29T08:36:16;20.80;99.90
11055;DHT22;5580;50.106;8.702;2023-07-29T08:38:42;20.80;99.90
11055;DHT22;5580;50.106;8.702;2023-07-29T08:41:14;20.80;99.90
11055;DHT22;5580;50.106;8.702;2023-07-29T08:44:25;20.80;99.90
11055;DHT22;5580;50.106;8.702;2023-07-29T08:46:50;20.80;99.90
11055;DHT22;5580;50.106;8.702;2023-07-29T08:49:18;20.90;99.90
11055;DHT22;5580;50.106;8.702;2023-07-29T08:51:47;20.90;99.90
11055;DHT22;5580;50.106;8.702;2023-07-29T08:54:13;21.00;99.90
11055;DHT22;5580;50.106;8.702;2023-07-29T08:56:41;21.00;99.90
11055;DHT22;5580;50.106;8.702;2023-07-29T08:59:08;21.10;99.90
11055;DHT22;5580;50.106;8.702;2023-07-29T09:01:34;21.20;99.90
11055;DHT22;5580;50.106;8.702;2023-07-29T09:04:00;21.30;99.90
11055;DHT22;5580;50.106;8.702;2023-07-29T09:06:26;21.40;99.90
11055;DHT22;5580;50.106;8.702;2023-07-29T09:08:54;21.40;99.90
11055;DHT22;5580;50.106;8.702;2023-07-29T09:11:21;21.50;99.90
11055;DHT22;5580;50.106;8.702;2023-07-29T09:13:47;21.60;99.90
11055;DHT22;5580;50.106;8.702;2023-07-29T09:16:14;21.60;99.90
11055;DHT22;5580;50.106;8.702;2023-07-29T09:18:40;21.60;99.90
11055;DHT22;5580;50.106;8.702;2023-07-29T09:21:06;21.70;99.90
11055;DHT22;5580;50.106;8.702;2023-07-29T09:23:42;21.70;99.90
11055;DHT22;5580;50.106;8.702;2023-07-29T09:26:07;21.90;99.90
11055;DHT22;5580;50.106;8.702;2023-07-29T09:28:38;22.00;99.90
11055;DHT22;5580;50.106;8.702;2023-07-29T09:31:04;22.00;99.90
11055;DHT22;5580;50.106;8.702;2023-07-29T09:33:33;22.10;99.90
11055;DHT22;5580;50.106;8.702;2023-07-29T09:36:01;22.20;99.90
11055;DHT22;5580;50.106;8.702;2023-07-29T09:38:27;22.20;99.90
11055;DHT22;5580;50.106;8.702;2023-07-29T09:40:55;22.20;99.90
11055;DHT22;5580;50.106;8.702;2023-07-29T09:43:26;22.20;99.90
11055;DHT22;5580;50.106;8.702;2023-07-29T09:45:54;22.20;99.90
11055;DHT22;5580;50.106;8.702;2023-07-29T09:48:23;22.20;99.90
11055;DHT22;5580;50.106;8.702;2023-07-29T09:50:48;22.20;99.90
11055;DHT22;5580;50.106;8.702;2023-07-29T09:53:14;22.20;99.90
11055;DHT22;5580;50.106;8.702;2023-07-29T09:55:40;22.30;99.90
11055;DHT22;5580;50.106;8.702;2023-07-29T09:58:11;22.30;99.90
11055;DHT22;5580;50.106;8.702;2023-07-29T10:00:37;22.40;99.90
11055;DHT22;5580;50.106;8.702;2023-07-29T10:03:04;22.40;99.90
11055;DHT22;5580;50.106;8.702;2023-07-29T10:05:30;22.40;99.90
11055;DHT22;5580;50.106;8.702;2023-07-29T10:07:56;22.40;99.90
11055;DHT22;5580;50.106;8.702;2023-07-29T10:10:22;22.40;99.90
11055;DHT22;5580;50.106;8.702;2023-07-29T10:12:48;22.50;99.90
11055;DHT22;5580;50.106;8.702;2023-07-29T10:15:15;22.50;99.90
11055;DHT22;5580;50.106;8.702;2023-07-29T10:17:40;22.50;99.90
11055;DHT22;5580;50.106;8.702;2023-07-29T10:20:08;22.60;99.90
11055;DHT22;5580;50.106;8.702;2023-07-29T10:22:42;22.60;99.90
11055;DHT22;5580;50.106;8.702;2023-07-29T10:30:20;22.80;99.90
11055;DHT22;5580;50.106;8.702;2023-07-29T10:32:47;22.80;99.90
11055;DHT22;5580;50.106;8.702;2023-07-29T10:35:14;22.90;99.90
11055;DHT22;5580;50.106;8.702;2023-07-29T10:37:40;23.00;99.90
11055;DHT22;5580;50.106;8.702;2023-07-29T10:40:09;23.00;99.90
11055;DHT22;5580;50.106;8.702;2023-07-29T10:42:36;23.00;99.90
11055;DHT22;5580;50.106;8.702;2023-07-29T10:45:36;23.00;99.90
11055;DHT22;5580;50.106;8.702;2023-07-29T10:48:11;23.10;99.90
11055;DHT22;5580;50.106;8.702;2023-07-29T10:50:37;23.10;99.90
11055;DHT22;5580;50.106;8.702;2023-07-29T10:53:04;23.20;99.90
11055;DHT22;5580;50.106;8.702;2023-07-29T10:55:36;23.20;99.90
11055;DHT22;5580;50.106;8.702;2023-07-29T10:58:13;23.20;99.90
11055;DHT22;5580;50.106;8.702;2023-07-29T11:00:44;23.30;99.90
11055;DHT22;5580;50.106;8.702;2023-07-29T11:03:11;23.30;99.90
11055;DHT22;5580;50.106;8.702;2023-07-29T11:08:28;23.40;99.90
11055;DHT22;5580;50.106;8.702;2023-07-29T11:13:26;23.40;99.90
11055;DHT22;5580;50.106;8.702;2023-07-29T11:15:53;23.30;99.90
11055;DHT22;5580;50.106;8.702;2023-07-29T11:18:20;23.30;99.90
11055;DHT22;5580;50.106;8.702;2023-07-29T11:20:46;23.20;99.90
11055;DHT22;5580;50.106;8.702;2023-07-29T11:23:13;23.10;99.90
11055;DHT22;5580;50.106;8.702;2023-07-29T11:25:39;23.10;99.90
11055;DHT22;5580;50.106;8.702;2023-07-29T11:28:05;23.00;99.90
11055;DHT22;5580;50.106;8.702;2023-07-29T11:30:30;22.90;99.90
11055;DHT22;5580;50.106;8.702;2023-07-29T11:32:57;22.90;99.90
11055;DHT22;5580;50.106;8.702;2023-07-29T11:35:23;22.90;99.90
11055;DHT22;5580;50.106;8.702;2023-07-29T11:37:51;22.90;99.90
11055;DHT22;5580;50.106;8.702;2023-07-29T11:40:18;22.90;99.90
11055;DHT22;5580;50.106;8.702;2023-07-29T11:42:49;22.90;99.90
11055;DHT22;5580;50.106;8.702;2023-07-29T11:45:18;22.90;99.90
11055;DHT22;5580;50.106;8.702;2023-07-29T11:47:45;22.90;99.90
11055;DHT22;5580;50.106;8.702;2023-07-29T11:50:11;23.00;99.90
11055;DHT22;5580;50.106;8.702;2023-07-29T11:52:42;23.00;99.90
11055;DHT22;5580;50.106;8.702;2023-07-29T11:55:08;23.10;99.90
11055;DHT22;5580;50.106;8.702;2023-07-29T11:57:35;23.10;99.90
11055;DHT22;5580;50.106;8.702;2023-07-29T12:00:03;23.20;99.90
11055;DHT22;5580;50.106;8.702;2023-07-29T12:02:30;23.20;99.90
11055;DHT22;5580;50.106;8.702;2023-07-29T12:04:56;23.20;99.90
11055;DHT22;5580;50.106;8.702;2023-07-29T12:07:22;23.20;99.90
11055;DHT22;5580;50.106;8.702;2023-07-29T12:09:49;23.20;99.90
11055;DHT22;5580;50.106;8.702;2023-07-29T12:12:15;23.20;99.90
11055;DHT22;5580;50.106;8.702;2023-07-29T12:14:46;23.20;99.90
11055;DHT22;5580;50.106;8.702;2023-07-29T12:17:12;23.30;99.90
11055;DHT22;5580;50.106;8.702;2023-07-29T12:19:39;23.30;99.90
11055;DHT22;5580;50.106;8.702;2023-07-29T12:22:06;23.40;99.90
11055;DHT22;5580;50.106;8.702;2023-07-29T12:24:33;23.40;99.90
11055;DHT22;5580;50.106;8.702;2023-07-29T12:27:00;23.50;99.90
11055;DHT22;5580;50.106;8.702;2023-07-29T12:29:26;23.50;99.90
11055;DHT22;5580;50.106;8.702;2023-07-29T12:32:00;23.50;99.90
11055;DHT22;5580;50.106;8.702;2023-07-29T12:34:28;23.60;99.90
11055;DHT22;5580;50.106;8.702;2023-07-29T12:36:54;23.60;99.90
11055;DHT22;5580;50.106;8.702;2023-07-29T12:39:29;23.70;99.90
11055;DHT22;5580;50.106;8.702;2023-07-29T12:41:56;23.70;99.90
11055;DHT22;5580;50.106;8.702;2023-07-29T12:44:31;23.80;99.90
11055;DHT22;5580;50.106;8.702;2023-07-29T12:46:57;23.80;99.90
11055;DHT22;5580;50.106;8.702;2023-07-29T12:49:23;23.90;99.90
11055;DHT22;5580;50.106;8.702;2023-07-29T12:51:48;23.90;99.90
11055;DHT22;5580;50.106;8.702;2023-07-29T12:54:14;24.00;99.90
11055;DHT22;5580;50.106;8.702;2023-07-29T12:56:40;24.10;99.90
11055;DHT22;5580;50.106;8.702;2023-07-29T12:59:06;24.10;99.90
11055;DHT22;5580;50.106;8.702;2023-07-29T13:01:31;24.10;99.90
11055;DHT22;5580;50.106;8.702;2023-07-29T13:03:57;24.10;99.90
11055;DHT22;5580;50.106;8.702;2023-07-29T13:06:23;24.20;99.90
11055;DHT22;5580;50.106;8.702;2023-07-29T13:08:48;24.20;99.90
11055;DHT22;5580;50.106;8.702;2023-07-29T13:11:15;24.20;99.90
11055;DHT22;5580;50.106;8.702;2023-07-29T13:13:41;24.20;99.90
11055;DHT22;5580;50.106;8.702;2023-07-29T13:16:06;24.20;99.90
11055;DHT22;5580;50.106;8.702;2023-07-29T13:18:33;24.10;99.90
11055;DHT22;5580;50.106;8.702;2023-07-29T13:20:58;24.10;99.90
11055;DHT22;5580;50.106;8.702;2023-07-29T13:23:26;24.20;99.90
11055;DHT22;5580;50.106;8.702;2023-07-29T13:25:52;24.20;99.90
11055;DHT22;5580;50.106;8.702;2023-07-29T13:28:18;24.20;99.90
11055;DHT22;5580;50.106;8.702;2023-07-29T13:30:44;24.20;99.90
11055;DHT22;5580;50.106;8.702;2023-07-29T13:33:10;24.20;99.90
11055;DHT22;5580;50.106;8.702;2023-07-29T13:35:35;24.20;99.90
11055;DHT22;5580;50.106;8.702;2023-07-29T13:38:01;24.20;99.90
11055;DHT22;5580;50.106;8.702;2023-07-29T13:40:27;24.20;99.90
11055;DHT22;5580;50.106;8.702;2023-07-29T13:42:53;24.20;99.90
11055;DHT22;5580;50.106;8.702;2023-07-29T13:45:19;24.30;99.90
11055;DHT22;5580;50.106;8.702;2023-07-29T13:47:44;24.30;99.90
11055;DHT22;5580;50.106;8.702;2023-07-29T13:50:10;24.30;99.90
11055;DHT22;5580;50.106;8.702;2023-07-29T13:52:36;24.30;99.90
11055;DHT22;5580;50.106;8.702;2023-07-29T13:55:03;24.40;99.90
11055;DHT22;5580;50.106;8.702;2023-07-29T13:57:28;24.40;99.90
11055;DHT22;5580;50.106;8.702;2023-07-29T13:59:54;24.40;99.90
11055;DHT22;5580;50.106;8.702;2023-07-29T14:02:19;24.40;99.90
11055;DHT22;5580;50.106;8.702;2023-07-29T14:04:45;24.40;99.90
11055;DHT22;5580;50.106;8.702;2023-07-29T14:07:11;24.40;99.90
11055;DHT22;5580;50.106;8.702;2023-07-29T14:09:36;24.40;99.90
11055;DHT22;5580;50.106;8.702;2023-07-29T14:12:04;24.50;99.90
11055;DHT22;5580;50.106;8.702;2023-07-29T14:14:30;24.50;99.90
11055;DHT22;5580;50.106;8.702;2023-07-29T14:16:56;24.50;99.90
11055;DHT22;5580;50.106;8.702;2023-07-29T14:19:22;24.60;99.90
11055;DHT22;5580;50.106;8.702;2023-07-29T14:21:48;24.60;99.90
11055;DHT22;5580;50.106;8.702;2023-07-29T14:24:14;24.70;99.90
11055;DHT22;5580;50.106;8.702;2023-07-29T14:26:41;24.70;99.90
11055;DHT22;5580;50.106;8.702;2023-07-29T14:29:06;24.70;99.90
11055;DHT22;5580;50.106;8.702;2023-07-29T14:31:32;24.70;99.90
11055;DHT22;5580;50.106;8.702;2023-07-29T14:33:57;24.70;99.90
11055;DHT22;5580;50.106;8.702;2023-07-29T14:36:23;24.70;99.90
11055;DHT22;5580;50.106;8.702;2023-07-29T14:38:49;24.80;99.90
11055;DHT22;5580;50.106;8.702;2023-07-29T14:41:15;24.80;99.90
11055;DHT22;5580;50.106;8.702;2023-07-29T14:43:40;24.80;99.90
11055;DHT22;5580;50.106;8.702;2023-07-29T14:46:06;24.80;99.90
11055;DHT22;5580;50.106;8.702;2023-07-29T14:48:32;24.90;99.90
11055;DHT22;5580;50.106;8.702;2023-07-29T14:50:57;24.90;99.90
11055;DHT22;5580;50.106;8.702;2023-07-29T14:53:23;25.00;99.90
11055;DHT22;5580;50.106;8.702;2023-07-29T14:55:49;25.00;99.90
11055;DHT22;5580;50.106;8.702;2023-07-29T14:58:15;25.10;99.90
11055;DHT22;5580;50.106;8.702;2023-07-29T15:00:40;25.10;99.90
11055;DHT22;5580;50.106;8.702;2023-07-29T15:03:06;25.10;99.90
11055;DHT22;5580;50.106;8.702;2023-07-29T15:05:32;25.10;99.90
11055;DHT22;5580;50.106;8.702;2023-07-29T15:07:58;25.10;99.90
11055;DHT22;5580;50.106;8.702;2023-07-29T15:10:24;25.10;99.90
11055;DHT22;5580;50.106;8.702;2023-07-29T15:12:49;25.10;99.90
11055;DHT22;5580;50.106;8.702;2023-07-29T15:15:15;25.10;99.90
11055;DHT22;5580;50.106;8.702;2023-07-29T15:17:40;25.10;99.90
11055;DHT22;5580;50.106;8.702;2023-07-29T15:20:06;25.10;99.90
11055;DHT22;5580;50.106;8.702;2023-07-29T15:22:33;25.10;99.90
11055;DHT22;5580;50.106;8.702;2023-07-29T15:24:58;25.20;99.90
11055;DHT22;5580;50.106;8.702;2023-07-29T15:27:28;25.20;99.90
11055;DHT22;5580;50.106;8.702;2023-07-29T15:29:53;25.30;99.90
11055;DHT22;5580;50.106;8.702;2023-07-29T15:32:19;25.20;99.90
11055;DHT22;5580;50.106;8.702;2023-07-29T15:34:45;25.20;99.90
11055;DHT22;5580;50.106;8.702;2023-07-29T15:37:11;25.20;99.90
11055;DHT22;5580;50.106;8.702;2023-07-29T15:39:37;25.20;99.90
11055;DHT22;5580;50.106;8.702;2023-07-29T15:42:03;25.20;99.90
11055;DHT22;5580;50.106;8.702;2023-07-29T15:44:28;25.30;99.90
11055;DHT22;5580;50.106;8.702;2023-07-29T15:46:54;25.30;99.90
11055;DHT22;5580;50.106;8.702;2023-07-29T15:49:22;25.20;99.90
11055;DHT22;5580;50.106;8.702;2023-07-29T15:51:48;25.30;99.90
11055;DHT22;5580;50.106;8.702;2023-07-29T15:54:13;25.30;99.90
11055;DHT22;5580;50.106;8.702;2023-07-29T15:56:39;25.30;99.90
11055;DHT22;5580;50.106;8.702;2023-07-29T15:59:05;25.30;99.90
11055;DHT22;5580;50.106;8.702;2023-07-29T16:01:30;25.30;99.90